sensor_id;sensor_type;location;lat;lon;timestamp;temperature;humidity
28297;DHT22;62078;49.366;8.172;2022-08-19T00:01:55;25.10;57.10
28297;DHT22;62078;49.366;8.172;2022-08-19T00:04:23;25.10;57.10
28297;DHT22;62078;49.366;8.172;2022-08-19T00:06:50;25.10;57.10
28297;DHT22;62078;49.366;8.172;2022-08-19T00:09:18;25.10;57.10
28297;DHT22;62078;49.366;8.172;2022-08-19T00:11:45;25.10;57.00
28297;DHT22;62078;49.366;8.172;2022-08-19T00:14:13;25.10;57.10
28297;DHT22;62078;49.366;8.172;2022-08-19T00:16:42;25.10;57.10
28297;DHT22;62078;49.366;8.172;2022-08-19T00:19:09;25.10;57.10
28297;DHT22;62078;49.366;8.172;2022-08-19T00:21:35;25.10;57.10
28297;DHT22;62078;49.366;8.172;2022-08-19T00:24:09;25.10;57.10
28297;DHT22;62078;49.366;8.172;2022-08-19T00:26:36;25.10;57.00
28297;DHT22;62078;49.366;8.172;2022-08-19T00:29:03;25.10;57.00
28297;DHT22;62078;49.366;8.172;2022-08-19T00:31:29;25.10;57.00
28297;DHT22;62078;49.366;8.172;2022-08-19T00:33:56;25.10;57.00
28297;DHT22;62078;49.366;8.172;2022-08-19T00:36:22;25.10;57.00
28297;DHT22;62078;49.366;8.172;2022-08-19T00:38:48;25.10;57.10
28297;DHT22;62078;49.366;8.172;2022-08-19T00:41:19;25.10;57.00
28297;DHT22;62078;49.366;8.172;2022-08-19T00:44:07;25.10;57.00
28297;DHT22;62078;49.366;8.172;2022-08-19T00:46:35;25.10;57.00
28297;DHT22;62078;49.366;8.172;2022-08-19T00:49:12;25.10;57.00
28297;DHT22;62078;49.366;8.172;2022-08-19T00:51:41;25.10;57.00
28297;DHT22;62078;49.366;8.172;2022-08-19T00:54:08;25.10;57.00
28297;DHT22;62078;49.366;8.172;2022-08-19T00:56:35;25.10;57.00
28297;DHT22;62078;49.366;8.172;2022-08-19T00:59:02;25.10;56.90
28297;DHT22;62078;49.366;8.172;2022-08-19T01:01:29;25.10;56.90
28297;DHT22;62078;49.366;8.172;2022-08-19T01:03:54;25.10;56.90
28297;DHT22;62078;49.366;8.172;2022-08-19T01:06:21;25.10;56.90
28297;DHT22;62078;49.366;8.172;2022-08-19T01:08:47;25.10;56.90
28297;DHT22;62078;49.366;8.172;2022-08-19T01:11:13;25.10;56.90
28297;DHT22;62078;49.366;8.172;2022-08-19T01:13:39;25.10;56.90
28297;DHT22;62078;49.366;8.172;2022-08-19T01:16:08;25.10;57.00
28297;DHT22;62078;49.366;8.172;2022-08-19T01:18:38;25.10;56.90
28297;DHT22;62078;49.366;8.172;2022-08-19T01:23:50;25.10;57.00
28297;DHT22;62078;49.366;8.172;2022-08-19T01:26:19;25.10;56.90
28297;DHT22;62078;49.366;8.172;2022-08-19T01:28:47;25.10;56.90
28297;DHT22;62078;49.366;8.172;2022-08-19T01:31:20;25.10;56.90
28297;DHT22;62078;49.366;8.172;2022-08-19T01:33:49;25.10;56.90
28297;DHT22;62078;49.366;8.172;2022-08-19T01:36:32;25.10;56.90
28297;DHT22;62078;49.366;8.172;2022-08-19T01:38:59;25.10;56.90
28297;DHT22;62078;49.366;8.172;2022-08-19T01:41:25;25.10;56.90
28297;DHT22;62078;49.366;8.172;2022-08-19T01:43:52;25.10;56.80
28297;DHT22;62078;49.366;8.172;2022-08-19T01:46:18;25.10;56.90
28297;DHT22;62078;49.366;8.172;2022-08-19T01:48:44;25.10;56.80
28297;DHT22;62078;49.366;8.172;2022-08-19T01:51:11;25.10;56.90
28297;DHT22;62078;49.366;8.172;2022-08-19T01:53:38;25.10;56.90
28297;DHT22;62078;49.366;8.172;2022-08-19T01:56:05;25.10;56.90
28297;DHT22;62078;49.366;8.172;2022-08-19T01:58:38;25.10;56.80
28297;DHT22;62078;49.366;8.172;2022-08-19T02:01:07;25.10;56.90
28297;DHT22;62078;49.366;8.172;2022-08-19T02:03:33;25.10;56.80
28297;DHT22;62078;49.366;8.172;2022-08-19T02:06:01;25.10;56.80
28297;DHT22;62078;49.366;8.172;2022-08-19T02:08:32;25.10;56.70
28297;DHT22;62078;49.366;8.172;2022-08-19T02:10:58;25.10;56.80
28297;DHT22;62078;49.366;8.172;2022-08-19T02:13:27;25.10;56.70
28297;DHT22;62078;49.366;8.172;2022-08-19T02:15:53;25.10;56.80
28297;DHT22;62078;49.366;8.172;2022-08-19T02:18:19;25.10;56.70
28297;DHT22;62078;49.366;8.172;2022-08-19T02:20:44;25.10;56.70
28297;DHT22;62078;49.366;8.172;2022-08-19T02:23:13;25.10;56.70
28297;DHT22;62078;49.366;8.172;2022-08-19T02:25:40;25.10;56.70
28297;DHT22;62078;49.366;8.172;2022-08-19T02:28:06;25.10;56.70
28297;DHT22;62078;49.366;8.172;2022-08-19T02:30:32;25.10;56.70
28297;DHT22;62078;49.366;8.172;2022-08-19T02:32:58;25.10;56.70
28297;DHT22;62078;49.366;8.172;2022-08-19T02:35:25;25.10;56.70
28297;DHT22;62078;49.366;8.172;2022-08-19T02:37:51;25.10;56.80
28297;DHT22;62078;49.366;8.172;2022-08-19T02:40:36;25.10;56.80
28297;DHT22;62078;49.366;8.172;2022-08-19T02:43:03;25.10;56.70
28297;DHT22;62078;49.366;8.172;2022-08-19T02:45:37;25.10;56.70
28297;DHT22;62078;49.366;8.172;2022-08-19T02:48:04;25.10;56.70
28297;DHT22;62078;49.366;8.172;2022-08-19T02:50:31;25.10;56.70
28297;DHT22;62078;49.366;8.172;2022-08-19T02:52:57;25.10;56.70
28297;DHT22;62078;49.366;8.172;2022-08-19T02:55:23;25.10;56.70
28297;DHT22;62078;49.366;8.172;2022-08-19T02:57:49;25.10;56.70
28297;DHT22;62078;49.366;8.172;2022-08-19T03:00:16;25.10;56.70
28297;DHT22;62078;49.366;8.172;2022-08-19T03:02:42;25.10;56.70
28297;DHT22;62078;49.366;8.172;2022-08-19T03:05:08;25.10;56.60
28297;DHT22;62078;49.366;8.172;2022-08-19T03:07:35;25.10;56.70
28297;DHT22;62078;49.366;8.172;2022-08-19T03:10:02;25.10;56.70
28297;DHT22;62078;49.366;8.172;2022-08-19T03:12:28;25.10;56.70
28297;DHT22;62078;49.366;8.172;2022-08-19T03:14:54;25.10;56.60
28297;DHT22;62078;49.366;8.172;2022-08-19T03:17:19;25.10;56.70
28297;DHT22;62078;49.366;8.172;2022-08-19T03:19:45;25.10;56.70
28297;DHT22;62078;49.366;8.172;2022-08-19T03:22:11;25.10;56.60
28297;DHT22;62078;49.366;8.172;2022-08-19T03:24:38;25.10;56.60
28297;DHT22;62078;49.366;8.172;2022-08-19T03:27:04;25.10;56.60
28297;DHT22;62078;49.366;8.172;2022-08-19T03:29:31;25.10;56.50
28297;DHT22;62078;49.366;8.172;2022-08-19T03:32:02;25.10;56.60
28297;DHT22;62078;49.366;8.172;2022-08-19T03:34:30;25.00;56.60
28297;DHT22;62078;49.366;8.172;2022-08-19T03:36:59;25.10;56.60
28297;DHT22;62078;49.366;8.172;2022-08-19T03:39:28;25.10;56.60
28297;DHT22;62078;49.366;8.172;2022-08-19T03:41:54;25.10;56.50
28297;DHT22;62078;49.366;8.172;2022-08-19T03:44:25;25.10;56.50
28297;DHT22;62078;49.366;8.172;2022-08-19T03:46:56;25.10;56.40
28297;DHT22;62078;49.366;8.172;2022-08-19T03:49:24;25.00;56.40
28297;DHT22;62078;49.366;8.172;2022-08-19T03:51:50;25.10;56.40
28297;DHT22;62078;49.366;8.172;2022-08-19T03:54:21;25.10;56.40
28297;DHT22;62078;49.366;8.172;2022-08-19T03:56:51;25.10;56.50
28297;DHT22;62078;49.366;8.172;2022-08-19T03:59:23;25.10;56.40
28297;DHT22;62078;49.366;8.172;2022-08-19T04:01:51;25.10;56.40
28297;DHT22;62078;49.366;8.172;2022-08-19T04:04:17;25.10;56.30
28297;DHT22;62078;49.366;8.172;2022-08-19T04:06:43;25.10;56.30
28297;DHT22;62078;49.366;8.172;2022-08-19T04:09:11;25.10;56.30
28297;DHT22;62078;49.366;8.172;2022-08-19T04:11:40;25.00;56.20
28297;DHT22;62078;49.366;8.172;2022-08-19T04:14:08;25.10;56.30
28297;DHT22;62078;49.366;8.172;2022-08-19T04:16:35;25.10;56.30
28297;DHT22;62078;49.366;8.172;2022-08-19T04:19:02;25.10;56.20
28297;DHT22;62078;49.366;8.172;2022-08-19T04:21:28;25.00;56.20
28297;DHT22;62078;49.366;8.172;2022-08-19T04:23:55;25.10;56.20
28297;DHT22;62078;49.366;8.172;2022-08-19T04:26:28;25.10;56.30
28297;DHT22;62078;49.366;8.172;2022-08-19T04:28:54;25.10;56.20
28297;DHT22;62078;49.366;8.172;2022-08-19T04:31:23;25.10;56.20
28297;DHT22;62078;49.366;8.172;2022-08-19T04:33:52;25.10;56.20
28297;DHT22;62078;49.366;8.172;2022-08-19T04:36:26;25.10;56.20
28297;DHT22;62078;49.366;8.172;2022-08-19T04:38:57;25.10;56.20
28297;DHT22;62078;49.366;8.172;2022-08-19T04:41:24;25.10;56.10
28297;DHT22;62078;49.366;8.172;2022-08-19T04:44:09;25.10;56.10
28297;DHT22;62078;49.366;8.172;2022-08-19T04:46:35;25.10;56.00
28297;DHT22;62078;49.366;8.172;2022-08-19T04:49:03;25.10;56.00
28297;DHT22;62078;49.366;8.172;2022-08-19T04:51:30;25.10;56.00
28297;DHT22;62078;49.366;8.172;2022-08-19T04:53:57;25.10;56.00
28297;DHT22;62078;49.366;8.172;2022-08-19T04:56:23;25.10;56.00
28297;DHT22;62078;49.366;8.172;2022-08-19T04:58:52;25.10;56.00
28297;DHT22;62078;49.366;8.172;2022-08-19T05:01:22;25.10;56.00
28297;DHT22;62078;49.366;8.172;2022-08-19T05:03:49;25.10;56.00
28297;DHT22;62078;49.366;8.172;2022-08-19T05:06:18;25.10;56.00
28297;DHT22;62078;49.366;8.172;2022-08-19T05:08:45;25.10;56.00
28297;DHT22;62078;49.366;8.172;2022-08-19T05:11:14;25.10;56.00
28297;DHT22;62078;49.366;8.172;2022-08-19T05:13:42;25.10;55.90
28297;DHT22;62078;49.366;8.172;2022-08-19T05:16:09;25.10;55.90
28297;DHT22;62078;49.366;8.172;2022-08-19T05:18:35;25.10;55.90
28297;DHT22;62078;49.366;8.172;2022-08-19T05:21:20;25.20;56.00
28297;DHT22;62078;49.366;8.172;2022-08-19T05:24:06;25.20;55.90
28297;DHT22;62078;49.366;8.172;2022-08-19T05:26:43;25.10;55.90
28297;DHT22;62078;49.366;8.172;2022-08-19T05:29:16;25.20;55.90
28297;DHT22;62078;49.366;8.172;2022-08-19T05:31:43;25.20;55.90
28297;DHT22;62078;49.366;8.172;2022-08-19T05:34:09;25.10;55.80
28297;DHT22;62078;49.366;8.172;2022-08-19T05:36:41;25.20;56.50
28297;DHT22;62078;49.366;8.172;2022-08-19T05:39:11;25.10;55.80
28297;DHT22;62078;49.366;8.172;2022-08-19T05:41:44;25.20;55.90
28297;DHT22;62078;49.366;8.172;2022-08-19T05:44:11;25.20;55.90
28297;DHT22;62078;49.366;8.172;2022-08-19T05:46:38;25.20;55.80
28297;DHT22;62078;49.366;8.172;2022-08-19T05:49:08;25.20;55.90
28297;DHT22;62078;49.366;8.172;2022-08-19T05:51:35;25.20;55.80
28297;DHT22;62078;49.366;8.172;2022-08-19T05:54:05;25.20;55.90
28297;DHT22;62078;49.366;8.172;2022-08-19T05:56:32;25.20;55.90
28297;DHT22;62078;49.366;8.172;2022-08-19T05:58:58;25.20;55.90
28297;DHT22;62078;49.366;8.172;2022-08-19T06:01:25;25.20;55.90
28297;DHT22;62078;49.366;8.172;2022-08-19T06:03:51;25.20;55.90
28297;DHT22;62078;49.366;8.172;2022-08-19T06:06:18;25.20;55.90
28297;DHT22;62078;49.366;8.172;2022-08-19T06:08:44;25.20;56.00
28297;DHT22;62078;49.366;8.172;2022-08-19T06:13:59;25.20;56.00
28297;DHT22;62078;49.366;8.172;2022-08-19T06:16:27;25.20;55.90
28297;DHT22;62078;49.366;8.172;2022-08-19T06:18:54;25.20;56.00
28297;DHT22;62078;49.366;8.172;2022-08-19T06:21:24;25.20;56.00
28297;DHT22;62078;49.366;8.172;2022-08-19T06:23:51;25.20;56.00
28297;DHT22;62078;49.366;8.172;2022-08-19T06:26:18;25.20;56.00
28297;DHT22;62078;49.366;8.172;2022-08-19T06:28:45;25.20;56.00
28297;DHT22;62078;49.366;8.172;2022-08-19T06:31:23;25.20;56.00
28297;DHT22;62078;49.366;8.172;2022-08-19T06:33:49;25.20;56.00
28297;DHT22;62078;49.366;8.172;2022-08-19T06:36:26;25.20;55.90
28297;DHT22;62078;49.366;8.172;2022-08-19T06:38:54;25.20;56.00
28297;DHT22;62078;49.366;8.172;2022-08-19T06:41:20;25.20;56.00
28297;DHT22;62078;49.366;8.172;2022-08-19T06:43:46;25.20;55.90
28297;DHT22;62078;49.366;8.172;2022-08-19T06:46:16;25.20;55.90
28297;DHT22;62078;49.366;8.172;2022-08-19T06:48:44;25.30;56.00
28297;DHT22;62078;49.366;8.172;2022-08-19T06:51:10;25.30;56.00
28297;DHT22;62078;49.366;8.172;2022-08-19T06:53:36;25.30;55.90
28297;DHT22;62078;49.366;8.172;2022-08-19T06:56:05;25.30;56.10
28297;DHT22;62078;49.366;8.172;2022-08-19T06:58:31;25.20;56.70
28297;DHT22;62078;49.366;8.172;2022-08-19T07:01:02;25.20;57.00
28297;DHT22;62078;49.366;8.172;2022-08-19T07:03:33;25.10;57.30
28297;DHT22;62078;49.366;8.172;2022-08-19T07:06:08;25.10;57.80
28297;DHT22;62078;49.366;8.172;2022-08-19T07:08:36;25.10;57.80
28297;DHT22;62078;49.366;8.172;2022-08-19T07:11:05;25.00;57.60
28297;DHT22;62078;49.366;8.172;2022-08-19T07:13:33;25.00;57.80
28297;DHT22;62078;49.366;8.172;2022-08-19T07:16:09;25.00;58.10
28297;DHT22;62078;49.366;8.172;2022-08-19T07:18:35;25.00;58.20
28297;DHT22;62078;49.366;8.172;2022-08-19T07:21:13;25.00;58.30
28297;DHT22;62078;49.366;8.172;2022-08-19T07:23:39;25.00;57.90
28297;DHT22;62078;49.366;8.172;2022-08-19T07:26:30;25.00;58.00
28297;DHT22;62078;49.366;8.172;2022-08-19T07:28:57;25.00;58.20
28297;DHT22;62078;49.366;8.172;2022-08-19T07:31:26;25.00;58.20
28297;DHT22;62078;49.366;8.172;2022-08-19T07:33:53;25.00;58.20
28297;DHT22;62078;49.366;8.172;2022-08-19T07:36:24;25.00;58.20
28297;DHT22;62078;49.366;8.172;2022-08-19T07:38:51;25.00;58.20
28297;DHT22;62078;49.366;8.172;2022-08-19T07:41:20;25.10;58.00
28297;DHT22;62078;49.366;8.172;2022-08-19T07:43:47;25.20;58.10
28297;DHT22;62078;49.366;8.172;2022-08-19T07:46:13;25.20;58.00
28297;DHT22;62078;49.366;8.172;2022-08-19T07:48:41;25.20;57.80
28297;DHT22;62078;49.366;8.172;2022-08-19T07:51:08;25.30;57.80
28297;DHT22;62078;49.366;8.172;2022-08-19T07:53:36;25.40;57.70
28297;DHT22;62078;49.366;8.172;2022-08-19T07:56:03;25.40;57.40
28297;DHT22;62078;49.366;8.172;2022-08-19T07:58:38;25.50;57.30
28297;DHT22;62078;49.366;8.172;2022-08-19T08:01:06;25.50;57.20
28297;DHT22;62078;49.366;8.172;2022-08-19T08:03:32;25.50;57.20
28297;DHT22;62078;49.366;8.172;2022-08-19T08:06:17;25.60;57.10
28297;DHT22;62078;49.366;8.172;2022-08-19T08:09:03;25.50;56.80
28297;DHT22;62078;49.366;8.172;2022-08-19T08:11:55;25.50;56.90
28297;DHT22;62078;49.366;8.172;2022-08-19T08:14:31;25.50;56.80
28297;DHT22;62078;49.366;8.172;2022-08-19T08:16:59;25.50;56.80
28297;DHT22;62078;49.366;8.172;2022-08-19T08:19:26;25.50;56.70
28297;DHT22;62078;49.366;8.172;2022-08-19T08:21:54;25.60;56.50
28297;DHT22;62078;49.366;8.172;2022-08-19T08:24:20;25.70;56.40
28297;DHT22;62078;49.366;8.172;2022-08-19T08:26:46;25.90;56.20
28297;DHT22;62078;49.366;8.172;2022-08-19T08:29:13;26.00;55.80
28297;DHT22;62078;49.366;8.172;2022-08-19T08:31:42;26.10;55.70
28297;DHT22;62078;49.366;8.172;2022-08-19T08:34:09;26.20;55.40
28297;DHT22;62078;49.366;8.172;2022-08-19T08:36:37;26.30;55.20
28297;DHT22;62078;49.366;8.172;2022-08-19T08:39:11;26.30;55.10
28297;DHT22;62078;49.366;8.172;2022-08-19T08:41:54;26.40;54.80
28297;DHT22;62078;49.366;8.172;2022-08-19T08:47:18;26.40;54.20
28297;DHT22;62078;49.366;8.172;2022-08-19T08:49:53;26.50;54.10
28297;DHT22;62078;49.366;8.172;2022-08-19T08:52:31;26.50;53.80
28297;DHT22;62078;49.366;8.172;2022-08-19T08:55:05;26.50;53.70
28297;DHT22;62078;49.366;8.172;2022-08-19T09:00:22;26.50;53.10
28297;DHT22;62078;49.366;8.172;2022-08-19T09:02:49;26.50;53.10
28297;DHT22;62078;49.366;8.172;2022-08-19T09:05:15;26.60;53.30
28297;DHT22;62078;49.366;8.172;2022-08-19T09:10:34;26.60;53.40
28297;DHT22;62078;49.366;8.172;2022-08-19T09:15:42;26.60;52.90
28297;DHT22;62078;49.366;8.172;2022-08-19T09:18:10;26.50;52.90
28297;DHT22;62078;49.366;8.172;2022-08-19T09:20:36;26.50;53.10
28297;DHT22;62078;49.366;8.172;2022-08-19T09:23:02;26.50;53.00
28297;DHT22;62078;49.366;8.172;2022-08-19T09:25:28;26.40;53.00
28297;DHT22;62078;49.366;8.172;2022-08-19T09:27:56;26.50;53.10
28297;DHT22;62078;49.366;8.172;2022-08-19T09:30:25;26.50;53.10
28297;DHT22;62078;49.366;8.172;2022-08-19T09:32:52;26.50;53.10
28297;DHT22;62078;49.366;8.172;2022-08-19T09:35:20;26.60;53.10
28297;DHT22;62078;49.366;8.172;2022-08-19T09:37:48;26.60;53.10
28297;DHT22;62078;49.366;8.172;2022-08-19T09:40:15;26.70;52.70
28297;DHT22;62078;49.366;8.172;2022-08-19T09:42:42;26.70;52.00
28297;DHT22;62078;49.366;8.172;2022-08-19T09:45:09;26.70;51.60
28297;DHT22;62078;49.366;8.172;2022-08-19T09:47:36;26.60;51.50
28297;DHT22;62078;49.366;8.172;2022-08-19T09:50:08;26.60;51.50
28297;DHT22;62078;49.366;8.172;2022-08-19T09:52:35;26.70;51.40
28297;DHT22;62078;49.366;8.172;2022-08-19T09:55:04;26.70;51.40
28297;DHT22;62078;49.366;8.172;2022-08-19T09:57:30;26.70;51.30
28297;DHT22;62078;49.366;8.172;2022-08-19T09:59:55;26.70;51.50
28297;DHT22;62078;49.366;8.172;2022-08-19T10:02:21;26.80;51.50
28297;DHT22;62078;49.366;8.172;2022-08-19T10:04:47;26.80;51.60
28297;DHT22;62078;49.366;8.172;2022-08-19T10:07:32;26.70;51.70
28297;DHT22;62078;49.366;8.172;2022-08-19T10:09:57;26.80;51.80
28297;DHT22;62078;49.366;8.172;2022-08-19T10:12:23;26.80;51.60
28297;DHT22;62078;49.366;8.172;2022-08-19T10:14:49;26.80;51.50
28297;DHT22;62078;49.366;8.172;2022-08-19T10:17:17;26.80;51.40
28297;DHT22;62078;49.366;8.172;2022-08-19T10:19:43;26.70;51.20
28297;DHT22;62078;49.366;8.172;2022-08-19T10:22:09;26.70;51.00
28297;DHT22;62078;49.366;8.172;2022-08-19T10:24:40;26.80;50.70
28297;DHT22;62078;49.366;8.172;2022-08-19T10:27:06;26.90;50.30
28297;DHT22;62078;49.366;8.172;2022-08-19T10:29:32;26.90;50.30
28297;DHT22;62078;49.366;8.172;2022-08-19T10:32:01;26.90;50.40
28297;DHT22;62078;49.366;8.172;2022-08-19T10:34:27;26.80;50.50
28297;DHT22;62078;49.366;8.172;2022-08-19T10:36:54;26.80;50.70
28297;DHT22;62078;49.366;8.172;2022-08-19T10:39:20;26.80;50.80
28297;DHT22;62078;49.366;8.172;2022-08-19T10:41:46;26.70;50.60
28297;DHT22;62078;49.366;8.172;2022-08-19T10:44:13;26.80;50.70
28297;DHT22;62078;49.366;8.172;2022-08-19T10:46:40;26.80;50.90
28297;DHT22;62078;49.366;8.172;2022-08-19T10:49:08;26.80;50.80
28297;DHT22;62078;49.366;8.172;2022-08-19T10:51:34;26.80;50.90
28297;DHT22;62078;49.366;8.172;2022-08-19T10:54:19;26.70;51.00
28297;DHT22;62078;49.366;8.172;2022-08-19T10:56:45;26.70;51.50
28297;DHT22;62078;49.366;8.172;2022-08-19T10:59:27;26.70;51.90
28297;DHT22;62078;49.366;8.172;2022-08-19T11:02:00;26.70;52.20
28297;DHT22;62078;49.366;8.172;2022-08-19T11:04:27;26.70;52.50
28297;DHT22;62078;49.366;8.172;2022-08-19T11:06:53;26.60;52.40
28297;DHT22;62078;49.366;8.172;2022-08-19T11:09:22;26.60;52.40
28297;DHT22;62078;49.366;8.172;2022-08-19T11:11:52;26.60;52.50
28297;DHT22;62078;49.366;8.172;2022-08-19T11:14:18;26.60;52.50
28297;DHT22;62078;49.366;8.172;2022-08-19T11:16:46;26.70;52.40
28297;DHT22;62078;49.366;8.172;2022-08-19T11:19:12;26.70;52.30
28297;DHT22;62078;49.366;8.172;2022-08-19T11:21:42;26.60;51.60
28297;DHT22;62078;49.366;8.172;2022-08-19T11:24:15;26.60;51.20
28297;DHT22;62078;49.366;8.172;2022-08-19T11:26:43;26.70;50.50
28297;DHT22;62078;49.366;8.172;2022-08-19T11:29:10;26.70;50.10
28297;DHT22;62078;49.366;8.172;2022-08-19T11:31:37;26.70;49.30
28297;DHT22;62078;49.366;8.172;2022-08-19T11:34:07;26.80;49.20
28297;DHT22;62078;49.366;8.172;2022-08-19T11:36:36;26.80;49.20
28297;DHT22;62078;49.366;8.172;2022-08-19T11:39:05;26.70;49.40
28297;DHT22;62078;49.366;8.172;2022-08-19T11:41:31;26.80;49.50
28297;DHT22;62078;49.366;8.172;2022-08-19T11:43:57;26.70;49.50
28297;DHT22;62078;49.366;8.172;2022-08-19T11:46:24;26.80;49.00
28297;DHT22;62078;49.366;8.172;2022-08-19T11:48:50;26.80;48.60
28297;DHT22;62078;49.366;8.172;2022-08-19T11:51:19;26.80;48.60
28297;DHT22;62078;49.366;8.172;2022-08-19T11:53:46;26.90;48.40
28297;DHT22;62078;49.366;8.172;2022-08-19T11:56:12;26.90;48.10
28297;DHT22;62078;49.366;8.172;2022-08-19T11:58:39;27.00;47.90
28297;DHT22;62078;49.366;8.172;2022-08-19T12:01:12;27.00;48.50
28297;DHT22;62078;49.366;8.172;2022-08-19T12:03:39;27.00;47.60
28297;DHT22;62078;49.366;8.172;2022-08-19T12:06:09;27.10;47.00
28297;DHT22;62078;49.366;8.172;2022-08-19T12:08:38;27.10;46.40
28297;DHT22;62078;49.366;8.172;2022-08-19T12:11:04;27.20;45.60
28297;DHT22;62078;49.366;8.172;2022-08-19T12:13:33;27.10;45.40
28297;DHT22;62078;49.366;8.172;2022-08-19T12:16:00;27.20;45.60
28297;DHT22;62078;49.366;8.172;2022-08-19T12:18:27;27.20;44.70
28297;DHT22;62078;49.366;8.172;2022-08-19T12:20:53;27.20;44.60
28297;DHT22;62078;49.366;8.172;2022-08-19T12:23:22;27.20;44.40
28297;DHT22;62078;49.366;8.172;2022-08-19T12:25:49;27.20;44.70
28297;DHT22;62078;49.366;8.172;2022-08-19T12:28:22;27.20;44.50
28297;DHT22;62078;49.366;8.172;2022-08-19T12:30:49;27.20;44.20
28297;DHT22;62078;49.366;8.172;2022-08-19T12:33:17;27.20;43.90
28297;DHT22;62078;49.366;8.172;2022-08-19T12:35:45;27.30;43.70
28297;DHT22;62078;49.366;8.172;2022-08-19T12:38:13;27.30;43.90
28297;DHT22;62078;49.366;8.172;2022-08-19T12:40:40;27.30;44.20
28297;DHT22;62078;49.366;8.172;2022-08-19T12:43:07;27.20;44.10
28297;DHT22;62078;49.366;8.172;2022-08-19T12:45:34;27.20;44.50
28297;DHT22;62078;49.366;8.172;2022-08-19T12:47:59;27.10;45.00
28297;DHT22;62078;49.366;8.172;2022-08-19T12:50:25;27.10;44.60
28297;DHT22;62078;49.366;8.172;2022-08-19T12:52:51;27.20;44.20
28297;DHT22;62078;49.366;8.172;2022-08-19T12:55:17;27.30;43.80
28297;DHT22;62078;49.366;8.172;2022-08-19T12:57:44;27.40;43.30
28297;DHT22;62078;49.366;8.172;2022-08-19T13:00:13;27.50;42.70
28297;DHT22;62078;49.366;8.172;2022-08-19T13:02:41;27.50;42.70
28297;DHT22;62078;49.366;8.172;2022-08-19T13:05:11;27.40;43.10
28297;DHT22;62078;49.366;8.172;2022-08-19T13:07:39;27.40;43.20
28297;DHT22;62078;49.366;8.172;2022-08-19T13:10:06;27.30;43.60
28297;DHT22;62078;49.366;8.172;2022-08-19T13:12:32;27.40;43.10
28297;DHT22;62078;49.366;8.172;2022-08-19T13:14:58;27.40;42.80
28297;DHT22;62078;49.366;8.172;2022-08-19T13:17:24;27.40;42.90
28297;DHT22;62078;49.366;8.172;2022-08-19T13:19:50;27.40;42.90
28297;DHT22;62078;49.366;8.172;2022-08-19T13:22:16;27.40;43.10
28297;DHT22;62078;49.366;8.172;2022-08-19T13:24:42;27.40;42.70
28297;DHT22;62078;49.366;8.172;2022-08-19T13:27:08;27.40;42.90
28297;DHT22;62078;49.366;8.172;2022-08-19T13:29:34;27.30;42.60
28297;DHT22;62078;49.366;8.172;2022-08-19T13:32:18;27.40;42.70
28297;DHT22;62078;49.366;8.172;2022-08-19T13:35:04;27.40;43.00
28297;DHT22;62078;49.366;8.172;2022-08-19T13:37:30;27.40;43.00
28297;DHT22;62078;49.366;8.172;2022-08-19T13:40:12;27.40;42.70
28297;DHT22;62078;49.366;8.172;2022-08-19T13:42:43;27.40;43.00
28297;DHT22;62078;49.366;8.172;2022-08-19T13:45:12;27.40;42.40
28297;DHT22;62078;49.366;8.172;2022-08-19T13:47:40;27.50;42.50
28297;DHT22;62078;49.366;8.172;2022-08-19T13:50:11;27.50;42.60
28297;DHT22;62078;49.366;8.172;2022-08-19T13:52:38;27.40;43.10
28297;DHT22;62078;49.366;8.172;2022-08-19T13:55:04;27.40;43.50
28297;DHT22;62078;49.366;8.172;2022-08-19T13:57:31;27.40;43.00
28297;DHT22;62078;49.366;8.172;2022-08-19T13:59:57;27.40;43.20
28297;DHT22;62078;49.366;8.172;2022-08-19T14:02:24;27.40;42.90
28297;DHT22;62078;49.366;8.172;2022-08-19T14:04:49;27.40;42.80
28297;DHT22;62078;49.366;8.172;2022-08-19T14:07:15;27.40;42.50
28297;DHT22;62078;49.366;8.172;2022-08-19T14:09:41;27.50;42.50
28297;DHT22;62078;49.366;8.172;2022-08-19T14:12:08;27.40;42.40
28297;DHT22;62078;49.366;8.172;2022-08-19T14:14:37;27.40;42.60
28297;DHT22;62078;49.366;8.172;2022-08-19T14:17:07;27.40;42.70
28297;DHT22;62078;49.366;8.172;2022-08-19T14:19:33;27.40;42.70
28297;DHT22;62078;49.366;8.172;2022-08-19T14:21:59;27.40;42.60
28297;DHT22;62078;49.366;8.172;2022-08-19T14:24:25;27.40;42.60
28297;DHT22;62078;49.366;8.172;2022-08-19T14:26:51;27.30;42.90
28297;DHT22;62078;49.366;8.172;2022-08-19T14:29:17;27.40;42.90
28297;DHT22;62078;49.366;8.172;2022-08-19T14:31:43;27.40;42.90
28297;DHT22;62078;49.366;8.172;2022-08-19T14:34:09;27.30;42.90
28297;DHT22;62078;49.366;8.172;2022-08-19T14:36:38;27.30;43.20
28297;DHT22;62078;49.366;8.172;2022-08-19T14:39:04;27.20;43.40
28297;DHT22;62078;49.366;8.172;2022-08-19T14:41:30;27.20;43.70
28297;DHT22;62078;49.366;8.172;2022-08-19T14:43:57;27.20;43.80
28297;DHT22;62078;49.366;8.172;2022-08-19T14:46:25;27.20;43.90
28297;DHT22;62078;49.366;8.172;2022-08-19T14:48:52;27.20;43.80
28297;DHT22;62078;49.366;8.172;2022-08-19T14:51:19;27.20;43.90
28297;DHT22;62078;49.366;8.172;2022-08-19T14:53:45;27.20;44.10
28297;DHT22;62078;49.366;8.172;2022-08-19T14:56:16;27.20;44.10
28297;DHT22;62078;49.366;8.172;2022-08-19T14:58:43;27.20;44.10
28297;DHT22;62078;49.366;8.172;2022-08-19T15:01:10;27.20;43.90
28297;DHT22;62078;49.366;8.172;2022-08-19T15:03:37;27.20;43.90
28297;DHT22;62078;49.366;8.172;2022-08-19T15:06:04;27.20;43.90
28297;DHT22;62078;49.366;8.172;2022-08-19T15:08:32;27.20;43.80
28297;DHT22;62078;49.366;8.172;2022-08-19T15:11:00;27.30;43.20
28297;DHT22;62078;49.366;8.172;2022-08-19T15:13:28;27.30;42.90
28297;DHT22;62078;49.366;8.172;2022-08-19T15:15:55;27.30;43.00
28297;DHT22;62078;49.366;8.172;2022-08-19T15:18:23;27.20;43.00
28297;DHT22;62078;49.366;8.172;2022-08-19T15:20:49;27.30;42.70
28297;DHT22;62078;49.366;8.172;2022-08-19T15:23:16;27.30;42.90
28297;DHT22;62078;49.366;8.172;2022-08-19T15:25:43;27.20;43.10
28297;DHT22;62078;49.366;8.172;2022-08-19T15:28:09;27.20;43.10
28297;DHT22;62078;49.366;8.172;2022-08-19T15:30:39;27.20;43.40
28297;DHT22;62078;49.366;8.172;2022-08-19T15:33:06;27.20;43.60
28297;DHT22;62078;49.366;8.172;2022-08-19T15:35:33;27.20;43.30
28297;DHT22;62078;49.366;8.172;2022-08-19T15:37:59;27.20;43.30
28297;DHT22;62078;49.366;8.172;2022-08-19T15:40:26;27.20;43.40
28297;DHT22;62078;49.366;8.172;2022-08-19T15:42:53;27.20;43.80
28297;DHT22;62078;49.366;8.172;2022-08-19T15:45:20;27.10;43.90
28297;DHT22;62078;49.366;8.172;2022-08-19T15:47:46;27.10;44.20
28297;DHT22;62078;49.366;8.172;2022-08-19T15:50:16;27.10;44.30
28297;DHT22;62078;49.366;8.172;2022-08-19T15:52:56;27.10;44.30
28297;DHT22;62078;49.366;8.172;2022-08-19T15:55:26;27.10;44.50